Overseas New York — WGEH — position and weather

sailwx.info

Track history (hours):
 
Tides and Currents Weather Stations Pressure Air Temp Water Temp Dewpoint Dewpoint Depression Visibility Wind Speed Wind Dir Waves Ship Positions

Overseas New York

Owner: ASC Leasing IV, Inc., KENNETT SQUARE, PA. More information available from US FCC via Universal Licensing System and Coast Guard Vessel Documentation Center.

Last reported at 2018-May-13 03:32 UTC. Time now 2018-May-22 07:37 UTC.
Position N 29°11' W 094°30'.
Warning: this ship's position is 9 days out of date.

Length 183 m; draft 8.2 m.

Type: Tanker. MMSI: 367381000.

Date/timePositionNaut miles runAvg speedWind from/ knotsBaromVisibWave heightAir tempDewpointWater temp
2018-May-13 03:32N 29°11' W 094°30'311.1
2018-May-13 03:14N 29°14' W 094°33'411.3
2018-May-13 02:50N 29°17' W 094°36'411.3
2018-May-13 02:30N 29°19' W 094°40'714.1
2018-May-13 02:00N 29°21' W 094°47'714.1
2018-May-13 01:29N 29°28' W 094°51'613.3
2018-May-13 01:00N 29°33' W 094°55'611.4
2018-May-13 00:30N 29°38' W 094°58'510.0
2018-May-13 00:00N 29°42' W 095°01'3 6.6
2018-May-12 23:30N 29°45' W 095°04'3 5.4
2018-May-12 23:00N 29°44' W 095°07'3 6.0
2018-May-12 22:30N 29°45' W 095°10'2 0.2
2018-May-12 15:07N 29°45' W 095°12'0 0.0
2018-May-12 14:58N 29°45' W 095°12'0 0.0
2018-May-12 14:30N 29°45' W 095°12'0 0.0
2018-May-12 13:58N 29°45' W 095°12'0 0.0
2018-May-12 13:30N 29°45' W 095°12'0 0.0
2018-May-12 13:00N 29°45' W 095°12'0 0.0
2018-May-12 12:25N 29°45' W 095°12'0 0.0
2018-May-12 11:59N 29°45' W 095°12'0 0.0
2018-May-12 11:30N 29°45' W 095°12'0 0.0
2018-May-12 10:41N 29°45' W 095°12'0 0.0
2018-May-12 10:16N 29°45' W 095°12'0 0.0
2018-May-12 09:57N 29°45' W 095°12'0 0.0
2018-May-12 09:26N 29°45' W 095°12'0 0.0
2018-May-12 08:57N 29°45' W 095°12'0 0.0
2018-May-12 08:28N 29°45' W 095°12'0 0.0
2018-May-12 07:52N 29°45' W 095°12'0 0.0
2018-May-12 07:27N 29°45' W 095°12'0 0.0
2018-May-12 06:21N 29°45' W 095°12'0 0.0
2018-May-12 05:59N 29°45' W 095°12'0 0.0
2018-May-12 05:18N 29°45' W 095°12'0 0.0
2018-May-12 04:53N 29°45' W 095°12'0 0.0
2018-May-12 04:22N 29°45' W 095°12'0 0.0
2018-May-12 03:57N 29°45' W 095°12'0 0.0
2018-May-12 03:30N 29°45' W 095°12'0 0.0
2018-May-12 02:54N 29°45' W 095°12'0 0.0
2018-May-12 01:20N 29°45' W 095°12'0 0.0
2018-May-12 00:58N 29°45' W 095°12'0 0.0
2018-May-12 00:28N 29°45' W 095°12'0 0.0
2018-May-11 23:58N 29°45' W 095°12'0 0.0
2018-May-11 23:30N 29°45' W 095°12'0 0.0
2018-May-11 22:59N 29°45' W 095°12'0 0.0
2018-May-11 22:29N 29°45' W 095°12'0 0.0
2018-May-11 21:59N 29°45' W 095°12'0 0.0
2018-May-11 21:22N 29°45' W 095°12'0 0.0
2018-May-11 21:00N 29°45' W 095°12'0 0.0
2018-May-11 20:28N 29°45' W 095°12'0 0.0
2018-May-11 19:59N 29°45' W 095°12'0 0.0
2018-May-11 19:30N 29°45' W 095°12'0 0.0
2018-May-11 18:59N 29°45' W 095°12'0 0.0
2018-May-11 18:30N 29°45' W 095°12'0 0.0
2018-May-11 18:00N 29°45' W 095°12'0 0.0
2018-May-11 17:29N 29°45' W 095°12'0 0.0
2018-May-11 16:59N 29°45' W 095°12'0 0.0
2018-May-11 16:29N 29°45' W 095°12'0 0.0
2018-May-11 15:58N 29°45' W 095°12'0 0.0
2018-May-11 15:29N 29°45' W 095°12'0 0.0
2018-May-11 14:59N 29°45' W 095°12'0 0.0
2018-May-11 14:22N 29°45' W 095°12'0 0.0
2018-May-11 13:57N 29°45' W 095°12'0 0.0
2018-May-11 13:26N 29°45' W 095°12'0 0.0
2018-May-11 13:00N 29°45' W 095°12'0 0.0
2018-May-11 12:30N 29°45' W 095°12'0 0.0
2018-May-11 12:00N 29°45' W 095°12'0 0.0
2018-May-11 11:29N 29°45' W 095°12'0 0.0
2018-May-11 10:58N 29°45' W 095°12'0 0.0
2018-May-11 10:26N 29°45' W 095°12'0 0.0
2018-May-11 09:53N 29°45' W 095°12'0 0.0
2018-May-11 09:30N 29°45' W 095°12'0 0.0
2018-May-11 08:44N 29°45' W 095°12'0 0.0
2018-May-11 07:26N 29°45' W 095°12'2 1.8
2018-May-11 06:18N 29°45' W 095°10'3 5.9
2018-May-11 05:47N 29°45' W 095°06'3 5.2
2018-May-11 05:14N 29°44' W 095°03'2 7.2
2018-May-11 04:59N 29°43' W 095°01'4 9.2
2018-May-11 04:30N 29°39' W 094°58'510.4
2018-May-11 04:00N 29°35' W 094°56'611.3
2018-May-11 03:30N 29°30' W 094°52'611.3
2018-May-11 03:00N 29°25' W 094°49'710.2
2018-May-11 02:21N 29°21' W 094°44'711.9
2018-May-11 01:45N 29°18' W 094°36'3 9.9
2018-May-11 01:26N 29°14' W 094°36'2 1.2
2018-May-10 23:39N 29°15' W 094°39'0 0.0
2018-May-10 23:27N 29°15' W 094°39'0 0.0
2018-May-10 23:00N 29°15' W 094°39'0 0.0
2018-May-10 22:30N 29°15' W 094°39'0 0.0
2018-May-10 21:57N 29°15' W 094°39'0 0.0
2018-May-10 21:30N 29°15' W 094°39'0 0.0
2018-May-10 21:00N 29°15' W 094°39'0 0.0
2018-May-10 20:27N 29°15' W 094°39'0 0.0
2018-May-10 19:57N 29°15' W 094°39'0 0.0
2018-May-10 19:27N 29°15' W 094°39'0 0.0
2018-May-10 18:57N 29°15' W 094°39'0 0.0
2018-May-10 18:21N 29°15' W 094°39'0 0.0
2018-May-10 18:00N 29°15' W 094°38'0 0.0
2018-May-10 17:27N 29°15' W 094°38'0 0.0
2018-May-10 17:00N 29°15' W 094°38'0 0.0
2018-May-10 12:12N 29°15' W 094°38'0 0.0
2018-May-10 12:00N 29°15' W 094°38'0 0.0
2018-May-10 11:21N 29°15' W 094°38'0 0.0
2018-May-10 11:00N 29°15' W 094°38'0 0.0
2018-May-10 10:30N 29°15' W 094°38'0 0.0
2018-May-10 10:00N 29°15' W 094°38'0 0.0
2018-May-10 09:30N 29°15' W 094°38'0 0.0
2018-May-10 09:00N 29°15' W 094°38'0 0.0
2018-May-10 08:30N 29°15' W 094°38'0 0.0
2018-May-10 08:00N 29°15' W 094°38'0 0.0
2018-May-10 07:30N 29°15' W 094°38'0 0.0
2018-May-10 06:54N 29°15' W 094°38'0 0.0
2018-May-10 06:24N 29°15' W 094°38'0 0.0
2018-May-10 06:00N 29°15' W 094°38'0 0.0
2018-May-10 05:12N 29°15' W 094°38'0 0.0
2018-May-10 04:57N 29°15' W 094°38'0 0.0
2018-May-10 04:27N 29°15' W 094°38'0 0.0
2018-May-10 03:57N 29°15' W 094°38'0 0.0
2018-May-10 03:27N 29°15' W 094°38'0 0.0
2018-May-10 03:00N 29°15' W 094°38'0 0.0
2018-May-10 02:18N 29°15' W 094°38'0 0.0
2018-May-10 01:54N 29°15' W 094°38'0 0.0
2018-May-10 01:30N 29°15' W 094°38'0 0.0
2018-May-10 01:00N 29°15' W 094°38'0 0.0
2018-May-10 00:30N 29°15' W 094°38'0 0.0
2018-May-10 00:00N 29°15' W 094°38'0 0.0
2018-May-09 23:30N 29°15' W 094°38'0 0.0
2018-May-09 23:00N 29°15' W 094°38'0 0.0
2018-May-09 22:30N 29°15' W 094°38'0 0.0
2018-May-09 21:54N 29°15' W 094°38'0 0.0
2018-May-09 21:27N 29°15' W 094°38'0 0.0
2018-May-09 21:00N 29°15' W 094°38'0 0.0
2018-May-09 20:21N 29°15' W 094°38'0 0.0
2018-May-09 19:57N 29°15' W 094°38'0 0.0
2018-May-09 19:30N 29°15' W 094°38'0 0.0
2018-May-09 18:57N 29°15' W 094°38'0 0.0
2018-May-09 18:27N 29°15' W 094°38'0 0.0
2018-May-09 17:57N 29°15' W 094°38'0 0.0
2018-May-09 17:30N 29°15' W 094°38'0 0.0
2018-May-09 16:54N 29°15' W 094°38'0 0.0
2018-May-09 16:21N 29°15' W 094°38'0 0.0
2018-May-09 15:57N 29°15' W 094°38'0 0.0
2018-May-09 15:12N 29°15' W 094°38'0 0.0
2018-May-09 14:57N 29°15' W 094°38'0 0.0
2018-May-09 14:30N 29°15' W 094°38'0 0.0
2018-May-09 13:54N 29°15' W 094°38'0 0.0
2018-May-09 13:30N 29°15' W 094°38'0 0.0
2018-May-09 12:57N 29°15' W 094°38'0 0.0
2018-May-09 12:30N 29°15' W 094°38'0 0.0
2018-May-09 11:57N 29°15' W 094°38'0 0.0
2018-May-09 11:27N 29°15' W 094°38'0 0.0
2018-May-09 10:57N 29°15' W 094°38'0 0.0
2018-May-09 10:30N 29°15' W 094°38'0 0.0
2018-May-09 10:00N 29°15' W 094°38'0 0.0
2018-May-09 09:30N 29°15' W 094°38'0 0.0
2018-May-09 08:57N 29°15' W 094°38'0 0.0
2018-May-09 08:30N 29°15' W 094°38'0 0.0
2018-May-09 08:00N 29°15' W 094°38'0 0.0
2018-May-09 07:30N 29°15' W 094°38'0 0.0
2018-May-09 07:00N 29°15' W 094°38'0 0.0
2018-May-09 06:30N 29°15' W 094°38'0 0.0
2018-May-09 06:00N 29°15' W 094°38'0 0.0
2018-May-09 05:27N 29°15' W 094°38'0 0.0
2018-May-09 05:00N 29°15' W 094°38'0 0.0
2018-May-09 04:30N 29°15' W 094°38'0 0.0
2018-May-09 03:57N 29°15' W 094°38'0 0.0
2018-May-09 03:30N 29°15' W 094°38'0 0.0
2018-May-09 03:00N 29°15' W 094°38'0 0.0
2018-May-09 02:30N 29°15' W 094°38'0 0.0
2018-May-09 02:00N 29°15' W 094°38'0 0.0
2018-May-09 01:30N 29°15' W 094°38'0 0.0
2018-May-09 01:00N 29°15' W 094°38'0 0.0
2018-May-09 00:30N 29°15' W 094°38'0 0.0
2018-May-09 00:00N 29°15' W 094°38'0 0.0
2018-May-08 23:30N 29°15' W 094°38'0 0.0
2018-May-08 23:00N 29°15' W 094°38'0 0.0
2018-May-08 22:30N 29°15' W 094°38'0 0.0
2018-May-08 22:00N 29°15' W 094°38'0 0.0
2018-May-08 21:30N 29°15' W 094°38'0 0.0
2018-May-08 21:00N 29°15' W 094°38'0 0.0
2018-May-08 20:30N 29°15' W 094°38'0 0.1
2018-May-08 20:01N 29°15' W 094°38'3 6.6
2018-May-08 19:30N 29°17' W 094°36'611.4
2018-May-08 19:00N 29°20' W 094°42'510.3
2018-May-08 18:30N 29°21' W 094°47'4 8.7
2018-May-08 18:01N 29°23' W 094°52'1 2.7
2018-May-08 17:30N 29°22' W 094°53'0 0.0
2018-May-08 15:51N 29°22' W 094°53'0 0.0
2018-May-08 15:30N 29°22' W 094°53'0 0.0
2018-May-08 14:54N 29°22' W 094°53'0 0.0
2018-May-08 14:27N 29°22' W 094°53'0 0.0
2018-May-08 13:48N 29°22' W 094°53'0 0.0
2018-May-08 13:24N 29°22' W 094°53'0 0.0
2018-May-08 13:00N 29°22' W 094°53'0 0.0
2018-May-08 12:30N 29°22' W 094°53'0 0.0
2018-May-08 12:00N 29°22' W 094°53'0 0.0
2018-May-08 11:27N 29°22' W 094°53'0 0.0
2018-May-08 10:57N 29°22' W 094°53'0 0.0
2018-May-08 10:24N 29°22' W 094°53'0 0.0
2018-May-08 10:00N 29°22' W 094°53'0 0.0
2018-May-08 09:30N 29°22' W 094°53'0 0.0
2018-May-08 09:00N 29°22' W 094°53'0 0.0
2018-May-08 08:30N 29°22' W 094°53'0 0.0
2018-May-08 07:57N 29°22' W 094°53'0 0.0
2018-May-08 07:30N 29°22' W 094°53'0 0.0
2018-May-08 06:42N 29°22' W 094°53'0 0.0
2018-May-08 06:30N 29°22' W 094°53'0 0.0
2018-May-08 05:57N 29°22' W 094°53'0 0.0
2018-May-08 05:30N 29°22' W 094°53'0 0.0
2018-May-08 04:57N 29°22' W 094°53'0 0.0
2018-May-08 04:27N 29°22' W 094°53'0 0.0
2018-May-08 04:00N 29°22' W 094°53'0 0.0
2018-May-08 03:30N 29°22' W 094°53'0 0.0
2018-May-08 02:57N 29°22' W 094°53'0 0.0
2018-May-08 02:30N 29°22' W 094°53'0 0.0
2018-May-08 01:54N 29°22' W 094°53'0 0.0
2018-May-08 01:30N 29°22' W 094°53'0 0.0
2018-May-08 00:57N 29°22' W 094°53'0 0.0
2018-May-08 00:24N 29°22' W 094°53'0 0.0
2018-May-07 21:33N 29°22' W 094°53'0 0.0
2018-May-07 21:21N 29°22' W 094°53'0 0.0
2018-May-07 20:27N 29°22' W 094°53'0 0.0
2018-May-07 19:00N 29°22' W 094°53'0 0.0
2018-May-07 18:30N 29°22' W 094°53'0 0.0
2018-May-07 18:00N 29°22' W 094°53'0 0.0
2018-May-07 17:30N 29°22' W 094°53'0 0.0
2018-May-07 17:00N 29°22' W 094°53'0 0.0
2018-May-07 16:00N 29°22' W 094°53'0 0.0
2018-May-07 15:30N 29°22' W 094°53'0 0.0
2018-May-07 14:48N 29°22' W 094°53'0 0.0
2018-May-07 14:27N 29°22' W 094°53'0 0.0
2018-May-07 13:57N 29°22' W 094°53'0 0.0
2018-May-07 13:30N 29°22' W 094°53'0 0.0
2018-May-07 13:00N 29°22' W 094°53'0 0.0
2018-May-07 12:30N 29°22' W 094°53'0 0.0
2018-May-07 11:57N 29°22' W 094°53'0 0.0
2018-May-07 11:18N 29°22' W 094°53'0 0.0
2018-May-07 10:54N 29°22' W 094°53'0 0.0
2018-May-07 10:27N 29°22' W 094°53'0 0.0
2018-May-07 10:00N 29°22' W 094°53'0 0.0
2018-May-07 09:30N 29°22' W 094°53'0 0.0
2018-May-07 09:00N 29°22' W 094°53'0 0.0
2018-May-07 08:24N 29°22' W 094°53'0 0.0
2018-May-07 08:00N 29°22' W 094°53'0 0.0
2018-May-07 07:27N 29°22' W 094°53'0 0.0
2018-May-07 07:00N 29°22' W 094°53'0 0.0
2018-May-07 05:39N 29°22' W 094°53'0 0.0
2018-May-07 05:12N 29°22' W 094°53'0 0.0
2018-May-07 05:00N 29°22' W 094°53'0 0.0
2018-May-07 04:30N 29°22' W 094°53'0 0.0
2018-May-07 03:57N 29°22' W 094°53'0 0.0
2018-May-07 03:30N 29°22' W 094°53'0 0.0
2018-May-07 02:57N 29°22' W 094°53'0 0.0
2018-May-07 02:24N 29°22' W 094°53'0 0.0
2018-May-07 02:00N 29°22' W 094°53'0 0.0
2018-May-07 01:30N 29°22' W 094°53'0 0.0
2018-May-07 00:51N 29°22' W 094°53'0 0.0
2018-May-07 00:30N 29°22' W 094°53'0 0.0
2018-May-06 23:21N 29°22' W 094°53'0 0.0
2018-May-06 23:00N 29°22' W 094°53'0 0.0
2018-May-06 22:24N 29°22' W 094°53'0 0.0
2018-May-06 21:48N 29°22' W 094°53'0 0.0
2018-May-06 21:30N 29°22' W 094°53'0 0.0
2018-May-06 20:54N 29°22' W 094°53'0 0.0
2018-May-06 20:30N 29°22' W 094°53'0 0.0
2018-May-06 19:24N 29°22' W 094°53'0 0.2
2018-May-06 19:00N 29°22' W 094°53'1 2.0
2018-May-06 18:30N 29°23' W 094°53'5 9.2
2018-May-06 18:00N 29°21' W 094°48'713.8
2018-May-06 17:30N 29°20' W 094°40'612.1
2018-May-06 17:00N 29°17' W 094°34'3 6.5
2018-May-06 16:29N 29°14' W 094°37'4 8.1
2018-May-06 16:00N 29°14' W 094°41'0 0.3
2018-May-06 15:28N 29°14' W 094°41'0 0.0
2018-May-06 14:58N 29°14' W 094°41'0 0.0
2018-May-06 14:28N 29°14' W 094°41'0 0.0
2018-May-06 13:58N 29°14' W 094°41'0 0.0
2018-May-06 13:28N 29°14' W 094°41'0 0.0
2018-May-06 12:52N 29°14' W 094°41'0 0.0
2018-May-06 12:19N 29°14' W 094°41'0 0.0
2018-May-06 11:58N 29°14' W 094°41'0 0.0
2018-May-06 11:28N 29°14' W 094°41'0 0.0
2018-May-06 10:58N 29°14' W 094°41'0 0.0
2018-May-06 10:28N 29°14' W 094°41'0 0.0
2018-May-06 09:55N 29°14' W 094°41'0 0.0
2018-May-06 09:28N 29°14' W 094°41'0 0.0
2018-May-06 08:58N 29°14' W 094°41'0 0.0
2018-May-06 08:28N 29°14' W 094°41'0 0.0
2018-May-06 07:55N 29°14' W 094°41'0 0.0
2018-May-06 07:28N 29°14' W 094°41'0 0.0
2018-May-06 06:58N 29°14' W 094°41'0 0.0
2018-May-06 06:28N 29°14' W 094°41'0 0.0
2018-May-06 05:58N 29°14' W 094°41'0 0.0
2018-May-06 05:22N 29°14' W 094°41'0 0.0
2018-May-06 04:49N 29°14' W 094°41'0 0.0
2018-May-06 04:25N 29°14' W 094°41'0 0.0
2018-May-06 03:58N 29°14' W 094°41'0 0.0
2018-May-06 03:28N 29°14' W 094°41'0 0.0
2018-May-06 02:34N 29°14' W 094°41'0 0.0
2018-May-05 17:13N 29°14' W 094°41'0 0.0
2018-May-05 16:49N 29°14' W 094°41'0 0.0
2018-May-05 16:28N 29°14' W 094°41'0 0.0
2018-May-05 15:46N 29°14' W 094°41'0 0.0
2018-May-05 15:22N 29°14' W 094°41'0 0.0
2018-May-05 14:55N 29°14' W 094°41'0 0.0
2018-May-05 14:28N 29°14' W 094°41'0 0.0
2018-May-05 13:34N 29°14' W 094°41'0 0.0
2018-May-05 13:13N 29°14' W 094°41'0 0.0
2018-May-05 12:46N 29°14' W 094°41'0 0.0
2018-May-05 08:43N 29°14' W 094°41'0 0.0
2018-May-05 08:22N 29°14' W 094°41'0 0.0
2018-May-05 07:46N 29°14' W 094°41'0 0.0
2018-May-05 07:28N 29°14' W 094°41'0 0.0
2018-May-05 06:52N 29°14' W 094°41'0 0.0
2018-May-05 06:22N 29°14' W 094°41'0 0.0
2018-May-05 05:55N 29°14' W 094°41'0 0.0
2018-May-05 05:16N 29°14' W 094°41'0 0.0
2018-May-05 04:01N 29°14' W 094°41'0 0.0
2018-May-05 03:46N 29°14' W 094°41'0 0.0
2018-May-05 03:28N 29°14' W 094°41'0 0.0
2018-May-05 02:55N 29°14' W 094°41'0 0.0
2018-May-05 02:28N 29°14' W 094°41'0 0.0
2018-May-05 01:58N 29°14' W 094°41'0 0.0
2018-May-05 01:28N 29°14' W 094°41'0 0.0
2018-May-05 00:58N 29°14' W 094°41'0 0.0
2018-May-05 00:28N 29°14' W 094°41'0 0.0
2018-May-04 23:58N 29°14' W 094°41'0 0.0
2018-May-04 23:28N 29°14' W 094°41'0 0.0
2018-May-04 22:58N 29°14' W 094°41'0 0.0
2018-May-04 22:22N 29°14' W 094°41'0 0.0
2018-May-04 21:58N 29°14' W 094°41'0 0.0
2018-May-04 21:28N 29°14' W 094°41'0 0.0
2018-May-04 20:58N 29°14' W 094°41'0 0.0
2018-May-04 20:28N 29°14' W 094°41'0 0.0
2018-May-04 19:58N 29°14' W 094°41'0 0.0
2018-May-04 19:28N 29°14' W 094°41'0 0.0
2018-May-04 18:58N 29°14' W 094°41'0 0.0
2018-May-04 18:28N 29°14' W 094°41'0 0.0
2018-May-04 17:58N 29°14' W 094°41'0 0.0
2018-May-04 17:28N 29°14' W 094°41'0 0.0
2018-May-04 16:58N 29°14' W 094°41'0 0.0
2018-May-04 16:28N 29°14' W 094°41'0 0.0
2018-May-04 15:58N 29°14' W 094°41'0 0.0
2018-May-04 15:28N 29°14' W 094°41'0 0.0
2018-May-04 14:58N 29°14' W 094°41'0 0.0
2018-May-04 14:28N 29°14' W 094°41'0 0.0
2018-May-04 13:58N 29°14' W 094°41'0 0.0
2018-May-04 13:28N 29°14' W 094°41'0 0.0
2018-May-04 12:58N 29°14' W 094°41'0 0.0
2018-May-04 12:25N 29°14' W 094°41'0 0.0
2018-May-04 11:58N 29°14' W 094°41'0 0.0
2018-May-04 11:28N 29°14' W 094°41'0 0.0
2018-May-04 10:58N 29°14' W 094°41'0 0.0
2018-May-04 10:28N 29°14' W 094°41'0 0.0
2018-May-04 09:58N 29°14' W 094°41'0 0.0
2018-May-04 09:28N 29°14' W 094°41'0 0.0
2018-May-04 08:58N 29°14' W 094°41'0 0.0
2018-May-04 08:25N 29°14' W 094°41'0 0.0
2018-May-04 07:58N 29°14' W 094°41'0 0.0
2018-May-04 07:28N 29°14' W 094°41'0 0.0
2018-May-04 06:58N 29°14' W 094°41'0 0.0
2018-May-04 06:28N 29°14' W 094°41'0 0.0
2018-May-04 05:58N 29°14' W 094°41'0 0.0
2018-May-04 05:22N 29°14' W 094°41'0 0.0
2018-May-04 04:58N 29°14' W 094°41'0 0.0
2018-May-04 04:28N 29°14' W 094°41'0 0.0
2018-May-04 03:58N 29°14' W 094°41'0 0.0
2018-May-04 03:28N 29°14' W 094°41'0 0.0
2018-May-04 02:58N 29°14' W 094°41'0 0.0
2018-May-04 02:28N 29°14' W 094°41'0 0.0
2018-May-04 01:55N 29°14' W 094°41'0 0.0
2018-May-04 01:28N 29°14' W 094°41'0 0.0
2018-May-04 00:58N 29°14' W 094°41'0 0.0
2018-May-04 00:25N 29°14' W 094°41'0 0.0
2018-May-03 23:58N 29°14' W 094°41'0 0.0
2018-May-03 23:28N 29°14' W 094°41'0 0.0
2018-May-03 22:58N 29°14' W 094°41'0 0.0
2018-May-03 22:28N 29°14' W 094°41'0 0.0
2018-May-03 21:58N 29°14' W 094°41'0 0.0
2018-May-03 21:25N 29°14' W 094°41'0 0.0
2018-May-03 20:58N 29°14' W 094°41'0 0.0
2018-May-03 20:10N 29°14' W 094°41'0 0.0
2018-May-03 19:58N 29°14' W 094°41'0 0.0
2018-May-03 19:25N 29°14' W 094°41'0 0.0
2018-May-03 18:58N 29°14' W 094°41'0 0.0
2018-May-03 18:22N 29°14' W 094°41'0 0.0
2018-May-03 17:55N 29°14' W 094°41'0 0.0
2018-May-03 17:25N 29°14' W 094°41'0 0.0
2018-May-03 16:55N 29°14' W 094°41'0 0.0
2018-May-03 16:25N 29°14' W 094°41'0 0.0
2018-May-03 15:58N 29°14' W 094°41'0 0.0
2018-May-03 15:28N 29°14' W 094°41'0 0.0
2018-May-03 14:58N 29°14' W 094°41'0 0.0
2018-May-03 14:28N 29°14' W 094°41'0 0.0
2018-May-03 13:58N 29°14' W 094°41'0 0.0
2018-May-03 13:28N 29°14' W 094°41'0 0.0
2018-May-03 12:55N 29°14' W 094°41'0 0.0
2018-May-03 12:28N 29°14' W 094°41'0 0.0
2018-May-03 11:49N 29°14' W 094°41'0 0.0
2018-May-03 11:28N 29°14' W 094°41'0 0.0
2018-May-03 10:58N 29°14' W 094°41'0 0.0
2018-May-03 10:28N 29°14' W 094°41'0 0.0
2018-May-03 09:58N 29°14' W 094°41'0 0.0
2018-May-03 09:28N 29°14' W 094°41'0 0.0
2018-May-03 08:58N 29°14' W 094°41'0 0.0
2018-May-03 08:28N 29°14' W 094°41'0 0.0
2018-May-03 07:55N 29°14' W 094°41'0 0.0
2018-May-03 07:25N 29°14' W 094°41'0 0.0
2018-May-03 06:52N 29°14' W 094°41'0 0.0
2018-May-03 06:25N 29°14' W 094°41'0 0.0
2018-May-03 05:52N 29°14' W 094°41'0 0.0
2018-May-03 05:25N 29°14' W 094°41'0 0.0
2018-May-03 04:55N 29°14' W 094°41'0 0.0
2018-May-03 04:28N 29°14' W 094°41'0 0.0
2018-May-03 03:58N 29°14' W 094°41'  
Track history (hours):
 
Tides and Currents Weather Stations Pressure Air Temp Water Temp Dewpoint Dewpoint Depression Visibility Wind Speed Wind Dir Waves Ship Positions

Overseas New York

Owner: ASC Leasing IV, Inc., KENNETT SQUARE, PA. More information available from US FCC via Universal Licensing System and Coast Guard Vessel Documentation Center.

Last reported at 2018-May-13 03:32 UTC. Time now 2018-May-22 07:37 UTC.
Position N 29°11' W 094°30'.
Warning: this ship's position is 9 days out of date.

Length 183 m; draft 8.2 m.

Type: Tanker. MMSI: 367381000.

Date/timePositionNaut miles runAvg speedWind from/ knotsBaromVisibWave heightAir tempDewpointWater temp
2018-May-13 03:32N 29°11' W 094°30'311.1
2018-May-13 03:14N 29°14' W 094°33'411.3
2018-May-13 02:50N 29°17' W 094°36'411.3
2018-May-13 02:30N 29°19' W 094°40'714.1
2018-May-13 02:00N 29°21' W 094°47'714.1
2018-May-13 01:29N 29°28' W 094°51'613.3
2018-May-13 01:00N 29°33' W 094°55'611.4
2018-May-13 00:30N 29°38' W 094°58'510.0
2018-May-13 00:00N 29°42' W 095°01'3 6.6
2018-May-12 23:30N 29°45' W 095°04'3 5.4
2018-May-12 23:00N 29°44' W 095°07'3 6.0
2018-May-12 22:30N 29°45' W 095°10'2 0.2
2018-May-12 15:07N 29°45' W 095°12'0 0.0
2018-May-12 14:58N 29°45' W 095°12'0 0.0
2018-May-12 14:30N 29°45' W 095°12'0 0.0
2018-May-12 13:58N 29°45' W 095°12'0 0.0
2018-May-12 13:30N 29°45' W 095°12'0 0.0
2018-May-12 13:00N 29°45' W 095°12'0 0.0
2018-May-12 12:25N 29°45' W 095°12'0 0.0
2018-May-12 11:59N 29°45' W 095°12'0 0.0
2018-May-12 11:30N 29°45' W 095°12'0 0.0
2018-May-12 10:41N 29°45' W 095°12'0 0.0
2018-May-12 10:16N 29°45' W 095°12'0 0.0
2018-May-12 09:57N 29°45' W 095°12'0 0.0
2018-May-12 09:26N 29°45' W 095°12'0 0.0
2018-May-12 08:57N 29°45' W 095°12'0 0.0
2018-May-12 08:28N 29°45' W 095°12'0 0.0
2018-May-12 07:52N 29°45' W 095°12'0 0.0
2018-May-12 07:27N 29°45' W 095°12'0 0.0
2018-May-12 06:21N 29°45' W 095°12'0 0.0
2018-May-12 05:59N 29°45' W 095°12'0 0.0
2018-May-12 05:18N 29°45' W 095°12'0 0.0
2018-May-12 04:53N 29°45' W 095°12'0 0.0
2018-May-12 04:22N 29°45' W 095°12'0 0.0
2018-May-12 03:57N 29°45' W 095°12'0 0.0
2018-May-12 03:30N 29°45' W 095°12'0 0.0
2018-May-12 02:54N 29°45' W 095°12'0 0.0
2018-May-12 01:20N 29°45' W 095°12'0 0.0
2018-May-12 00:58N 29°45' W 095°12'0 0.0
2018-May-12 00:28N 29°45' W 095°12'0 0.0
2018-May-11 23:58N 29°45' W 095°12'0 0.0
2018-May-11 23:30N 29°45' W 095°12'0 0.0
2018-May-11 22:59N 29°45' W 095°12'0 0.0
2018-May-11 22:29N 29°45' W 095°12'0 0.0
2018-May-11 21:59N 29°45' W 095°12'0 0.0
2018-May-11 21:22N 29°45' W 095°12'0 0.0
2018-May-11 21:00N 29°45' W 095°12'0 0.0
2018-May-11 20:28N 29°45' W 095°12'0 0.0
2018-May-11 19:59N 29°45' W 095°12'0 0.0
2018-May-11 19:30N 29°45' W 095°12'0 0.0
2018-May-11 18:59N 29°45' W 095°12'0 0.0
2018-May-11 18:30N 29°45' W 095°12'0 0.0
2018-May-11 18:00N 29°45' W 095°12'0 0.0
2018-May-11 17:29N 29°45' W 095°12'0 0.0
2018-May-11 16:59N 29°45' W 095°12'0 0.0
2018-May-11 16:29N 29°45' W 095°12'0 0.0
2018-May-11 15:58N 29°45' W 095°12'0 0.0
2018-May-11 15:29N 29°45' W 095°12'0 0.0
2018-May-11 14:59N 29°45' W 095°12'0 0.0
2018-May-11 14:22N 29°45' W 095°12'0 0.0
2018-May-11 13:57N 29°45' W 095°12'0 0.0
2018-May-11 13:26N 29°45' W 095°12'0 0.0
2018-May-11 13:00N 29°45' W 095°12'0 0.0
2018-May-11 12:30N 29°45' W 095°12'0 0.0
2018-May-11 12:00N 29°45' W 095°12'0 0.0
2018-May-11 11:29N 29°45' W 095°12'0 0.0
2018-May-11 10:58N 29°45' W 095°12'0 0.0
2018-May-11 10:26N 29°45' W 095°12'0 0.0
2018-May-11 09:53N 29°45' W 095°12'0 0.0
2018-May-11 09:30N 29°45' W 095°12'0 0.0
2018-May-11 08:44N 29°45' W 095°12'0 0.0
2018-May-11 07:26N 29°45' W 095°12'2 1.8
2018-May-11 06:18N 29°45' W 095°10'3 5.9
2018-May-11 05:47N 29°45' W 095°06'3 5.2
2018-May-11 05:14N 29°44' W 095°03'2 7.2
2018-May-11 04:59N 29°43' W 095°01'4 9.2
2018-May-11 04:30N 29°39' W 094°58'510.4
2018-May-11 04:00N 29°35' W 094°56'611.3
2018-May-11 03:30N 29°30' W 094°52'611.3
2018-May-11 03:00N 29°25' W 094°49'710.2
2018-May-11 02:21N 29°21' W 094°44'711.9
2018-May-11 01:45N 29°18' W 094°36'3 9.9
2018-May-11 01:26N 29°14' W 094°36'2 1.2
2018-May-10 23:39N 29°15' W 094°39'0 0.0
2018-May-10 23:27N 29°15' W 094°39'0 0.0
2018-May-10 23:00N 29°15' W 094°39'0 0.0
2018-May-10 22:30N 29°15' W 094°39'0 0.0
2018-May-10 21:57N 29°15' W 094°39'0 0.0
2018-May-10 21:30N 29°15' W 094°39'0 0.0
2018-May-10 21:00N 29°15' W 094°39'0 0.0
2018-May-10 20:27N 29°15' W 094°39'0 0.0
2018-May-10 19:57N 29°15' W 094°39'0 0.0
2018-May-10 19:27N 29°15' W 094°39'0 0.0
2018-May-10 18:57N 29°15' W 094°39'0 0.0
2018-May-10 18:21N 29°15' W 094°39'0 0.0
2018-May-10 18:00N 29°15' W 094°38'0 0.0
2018-May-10 17:27N 29°15' W 094°38'0 0.0
2018-May-10 17:00N 29°15' W 094°38'0 0.0
2018-May-10 12:12N 29°15' W 094°38'0 0.0
2018-May-10 12:00N 29°15' W 094°38'0 0.0
2018-May-10 11:21N 29°15' W 094°38'0 0.0
2018-May-10 11:00N 29°15' W 094°38'0 0.0
2018-May-10 10:30N 29°15' W 094°38'0 0.0
2018-May-10 10:00N 29°15' W 094°38'0 0.0
2018-May-10 09:30N 29°15' W 094°38'0 0.0
2018-May-10 09:00N 29°15' W 094°38'0 0.0
2018-May-10 08:30N 29°15' W 094°38'0 0.0
2018-May-10 08:00N 29°15' W 094°38'0 0.0
2018-May-10 07:30N 29°15' W 094°38'0 0.0
2018-May-10 06:54N 29°15' W 094°38'0 0.0
2018-May-10 06:24N 29°15' W 094°38'0 0.0
2018-May-10 06:00N 29°15' W 094°38'0 0.0
2018-May-10 05:12N 29°15' W 094°38'0 0.0
2018-May-10 04:57N 29°15' W 094°38'0 0.0
2018-May-10 04:27N 29°15' W 094°38'0 0.0
2018-May-10 03:57N 29°15' W 094°38'0 0.0
2018-May-10 03:27N 29°15' W 094°38'0 0.0
2018-May-10 03:00N 29°15' W 094°38'0 0.0
2018-May-10 02:18N 29°15' W 094°38'0 0.0
2018-May-10 01:54N 29°15' W 094°38'0 0.0
2018-May-10 01:30N 29°15' W 094°38'0 0.0
2018-May-10 01:00N 29°15' W 094°38'0 0.0
2018-May-10 00:30N 29°15' W 094°38'0 0.0
2018-May-10 00:00N 29°15' W 094°38'0 0.0
2018-May-09 23:30N 29°15' W 094°38'0 0.0
2018-May-09 23:00N 29°15' W 094°38'0 0.0
2018-May-09 22:30N 29°15' W 094°38'0 0.0
2018-May-09 21:54N 29°15' W 094°38'0 0.0
2018-May-09 21:27N 29°15' W 094°38'0 0.0
2018-May-09 21:00N 29°15' W 094°38'0 0.0
2018-May-09 20:21N 29°15' W 094°38'0 0.0
2018-May-09 19:57N 29°15' W 094°38'0 0.0
2018-May-09 19:30N 29°15' W 094°38'0 0.0
2018-May-09 18:57N 29°15' W 094°38'0 0.0
2018-May-09 18:27N 29°15' W 094°38'0 0.0
2018-May-09 17:57N 29°15' W 094°38'0 0.0
2018-May-09 17:30N 29°15' W 094°38'0 0.0
2018-May-09 16:54N 29°15' W 094°38'0 0.0
2018-May-09 16:21N 29°15' W 094°38'0 0.0
2018-May-09 15:57N 29°15' W 094°38'0 0.0
2018-May-09 15:12N 29°15' W 094°38'0 0.0
2018-May-09 14:57N 29°15' W 094°38'0 0.0
2018-May-09 14:30N 29°15' W 094°38'0 0.0
2018-May-09 13:54N 29°15' W 094°38'0 0.0
2018-May-09 13:30N 29°15' W 094°38'0 0.0
2018-May-09 12:57N 29°15' W 094°38'0 0.0
2018-May-09 12:30N 29°15' W 094°38'0 0.0
2018-May-09 11:57N 29°15' W 094°38'0 0.0
2018-May-09 11:27N 29°15' W 094°38'0 0.0
2018-May-09 10:57N 29°15' W 094°38'0 0.0
2018-May-09 10:30N 29°15' W 094°38'0 0.0
2018-May-09 10:00N 29°15' W 094°38'0 0.0
2018-May-09 09:30N 29°15' W 094°38'0 0.0
2018-May-09 08:57N 29°15' W 094°38'0 0.0
2018-May-09 08:30N 29°15' W 094°38'0 0.0
2018-May-09 08:00N 29°15' W 094°38'0 0.0
2018-May-09 07:30N 29°15' W 094°38'0 0.0
2018-May-09 07:00N 29°15' W 094°38'0 0.0
2018-May-09 06:30N 29°15' W 094°38'0 0.0
2018-May-09 06:00N 29°15' W 094°38'0 0.0
2018-May-09 05:27N 29°15' W 094°38'0 0.0
2018-May-09 05:00N 29°15' W 094°38'0 0.0
2018-May-09 04:30N 29°15' W 094°38'0 0.0
2018-May-09 03:57N 29°15' W 094°38'0 0.0
2018-May-09 03:30N 29°15' W 094°38'0 0.0
2018-May-09 03:00N 29°15' W 094°38'0 0.0
2018-May-09 02:30N 29°15' W 094°38'0 0.0
2018-May-09 02:00N 29°15' W 094°38'0 0.0
2018-May-09 01:30N 29°15' W 094°38'0 0.0
2018-May-09 01:00N 29°15' W 094°38'0 0.0
2018-May-09 00:30N 29°15' W 094°38'0 0.0
2018-May-09 00:00N 29°15' W 094°38'0 0.0
2018-May-08 23:30N 29°15' W 094°38'0 0.0
2018-May-08 23:00N 29°15' W 094°38'0 0.0
2018-May-08 22:30N 29°15' W 094°38'0 0.0
2018-May-08 22:00N 29°15' W 094°38'0 0.0
2018-May-08 21:30N 29°15' W 094°38'0 0.0
2018-May-08 21:00N 29°15' W 094°38'0 0.0
2018-May-08 20:30N 29°15' W 094°38'0 0.1
2018-May-08 20:01N 29°15' W 094°38'3 6.6
2018-May-08 19:30N 29°17' W 094°36'611.4
2018-May-08 19:00N 29°20' W 094°42'510.3
2018-May-08 18:30N 29°21' W 094°47'4 8.7
2018-May-08 18:01N 29°23' W 094°52'1 2.7
2018-May-08 17:30N 29°22' W 094°53'0 0.0
2018-May-08 15:51N 29°22' W 094°53'0 0.0
2018-May-08 15:30N 29°22' W 094°53'0 0.0
2018-May-08 14:54N 29°22' W 094°53'0 0.0
2018-May-08 14:27N 29°22' W 094°53'0 0.0
2018-May-08 13:48N 29°22' W 094°53'0 0.0
2018-May-08 13:24N 29°22' W 094°53'0 0.0
2018-May-08 13:00N 29°22' W 094°53'0 0.0
2018-May-08 12:30N 29°22' W 094°53'0 0.0
2018-May-08 12:00N 29°22' W 094°53'0 0.0
2018-May-08 11:27N 29°22' W 094°53'0 0.0
2018-May-08 10:57N 29°22' W 094°53'0 0.0
2018-May-08 10:24N 29°22' W 094°53'0 0.0
2018-May-08 10:00N 29°22' W 094°53'0 0.0
2018-May-08 09:30N 29°22' W 094°53'0 0.0
2018-May-08 09:00N 29°22' W 094°53'0 0.0
2018-May-08 08:30N 29°22' W 094°53'0 0.0
2018-May-08 07:57N 29°22' W 094°53'0 0.0
2018-May-08 07:30N 29°22' W 094°53'0 0.0
2018-May-08 06:42N 29°22' W 094°53'0 0.0
2018-May-08 06:30N 29°22' W 094°53'0 0.0
2018-May-08 05:57N 29°22' W 094°53'0 0.0
2018-May-08 05:30N 29°22' W 094°53'0 0.0
2018-May-08 04:57N 29°22' W 094°53'0 0.0
2018-May-08 04:27N 29°22' W 094°53'0 0.0
2018-May-08 04:00N 29°22' W 094°53'0 0.0
2018-May-08 03:30N 29°22' W 094°53'0 0.0
2018-May-08 02:57N 29°22' W 094°53'0 0.0
2018-May-08 02:30N 29°22' W 094°53'0 0.0
2018-May-08 01:54N 29°22' W 094°53'0 0.0
2018-May-08 01:30N 29°22' W 094°53'0 0.0
2018-May-08 00:57N 29°22' W 094°53'0 0.0
2018-May-08 00:24N 29°22' W 094°53'0 0.0
2018-May-07 21:33N 29°22' W 094°53'0 0.0
2018-May-07 21:21N 29°22' W 094°53'0 0.0
2018-May-07 20:27N 29°22' W 094°53'0 0.0
2018-May-07 19:00N 29°22' W 094°53'0 0.0
2018-May-07 18:30N 29°22' W 094°53'0 0.0
2018-May-07 18:00N 29°22' W 094°53'0 0.0
2018-May-07 17:30N 29°22' W 094°53'0 0.0
2018-May-07 17:00N 29°22' W 094°53'0 0.0
2018-May-07 16:00N 29°22' W 094°53'0 0.0
2018-May-07 15:30N 29°22' W 094°53'0 0.0
2018-May-07 14:48N 29°22' W 094°53'0 0.0
2018-May-07 14:27N 29°22' W 094°53'0 0.0
2018-May-07 13:57N 29°22' W 094°53'0 0.0
2018-May-07 13:30N 29°22' W 094°53'0 0.0
2018-May-07 13:00N 29°22' W 094°53'0 0.0
2018-May-07 12:30N 29°22' W 094°53'0 0.0
2018-May-07 11:57N 29°22' W 094°53'0 0.0
2018-May-07 11:18N 29°22' W 094°53'0 0.0
2018-May-07 10:54N 29°22' W 094°53'0 0.0
2018-May-07 10:27N 29°22' W 094°53'0 0.0
2018-May-07 10:00N 29°22' W 094°53'0 0.0
2018-May-07 09:30N 29°22' W 094°53'0 0.0
2018-May-07 09:00N 29°22' W 094°53'0 0.0
2018-May-07 08:24N 29°22' W 094°53'0 0.0
2018-May-07 08:00N 29°22' W 094°53'0 0.0
2018-May-07 07:27N 29°22' W 094°53'0 0.0
2018-May-07 07:00N 29°22' W 094°53'0 0.0
2018-May-07 05:39N 29°22' W 094°53'0 0.0
2018-May-07 05:12N 29°22' W 094°53'0 0.0
2018-May-07 05:00N 29°22' W 094°53'0 0.0
2018-May-07 04:30N 29°22' W 094°53'0 0.0
2018-May-07 03:57N 29°22' W 094°53'0 0.0
2018-May-07 03:30N 29°22' W 094°53'0 0.0
2018-May-07 02:57N 29°22' W 094°53'0 0.0
2018-May-07 02:24N 29°22' W 094°53'0 0.0
2018-May-07 02:00N 29°22' W 094°53'0 0.0
2018-May-07 01:30N 29°22' W 094°53'0 0.0
2018-May-07 00:51N 29°22' W 094°53'0 0.0
2018-May-07 00:30N 29°22' W 094°53'0 0.0
2018-May-06 23:21N 29°22' W 094°53'0 0.0
2018-May-06 23:00N 29°22' W 094°53'0 0.0
2018-May-06 22:24N 29°22' W 094°53'0 0.0
2018-May-06 21:48N 29°22' W 094°53'0 0.0
2018-May-06 21:30N 29°22' W 094°53'0 0.0
2018-May-06 20:54N 29°22' W 094°53'0 0.0
2018-May-06 20:30N 29°22' W 094°53'0 0.0
2018-May-06 19:24N 29°22' W 094°53'0 0.2
2018-May-06 19:00N 29°22' W 094°53'1 2.0
2018-May-06 18:30N 29°23' W 094°53'5 9.2
2018-May-06 18:00N 29°21' W 094°48'713.8
2018-May-06 17:30N 29°20' W 094°40'612.1
2018-May-06 17:00N 29°17' W 094°34'3 6.5
2018-May-06 16:29N 29°14' W 094°37'4 8.1
2018-May-06 16:00N 29°14' W 094°41'0 0.3
2018-May-06 15:28N 29°14' W 094°41'0 0.0
2018-May-06 14:58N 29°14' W 094°41'0 0.0
2018-May-06 14:28N 29°14' W 094°41'0 0.0
2018-May-06 13:58N 29°14' W 094°41'0 0.0
2018-May-06 13:28N 29°14' W 094°41'0 0.0
2018-May-06 12:52N 29°14' W 094°41'0 0.0
2018-May-06 12:19N 29°14' W 094°41'0 0.0
2018-May-06 11:58N 29°14' W 094°41'0 0.0
2018-May-06 11:28N 29°14' W 094°41'0 0.0
2018-May-06 10:58N 29°14' W 094°41'0 0.0
2018-May-06 10:28N 29°14' W 094°41'0 0.0
2018-May-06 09:55N 29°14' W 094°41'0 0.0
2018-May-06 09:28N 29°14' W 094°41'0 0.0
2018-May-06 08:58N 29°14' W 094°41'0 0.0
2018-May-06 08:28N 29°14' W 094°41'0 0.0
2018-May-06 07:55N 29°14' W 094°41'0 0.0
2018-May-06 07:28N 29°14' W 094°41'0 0.0
2018-May-06 06:58N 29°14' W 094°41'0 0.0
2018-May-06 06:28N 29°14' W 094°41'0 0.0
2018-May-06 05:58N 29°14' W 094°41'0 0.0
2018-May-06 05:22N 29°14' W 094°41'0 0.0
2018-May-06 04:49N 29°14' W 094°41'0 0.0
2018-May-06 04:25N 29°14' W 094°41'0 0.0
2018-May-06 03:58N 29°14' W 094°41'0 0.0
2018-May-06 03:28N 29°14' W 094°41'0 0.0
2018-May-06 02:34N 29°14' W 094°41'0 0.0
2018-May-05 17:13N 29°14' W 094°41'0 0.0
2018-May-05 16:49N 29°14' W 094°41'0 0.0
2018-May-05 16:28N 29°14' W 094°41'0 0.0
2018-May-05 15:46N 29°14' W 094°41'0 0.0
2018-May-05 15:22N 29°14' W 094°41'0 0.0
2018-May-05 14:55N 29°14' W 094°41'0 0.0
2018-May-05 14:28N 29°14' W 094°41'0 0.0
2018-May-05 13:34N 29°14' W 094°41'0 0.0
2018-May-05 13:13N 29°14' W 094°41'0 0.0
2018-May-05 12:46N 29°14' W 094°41'0 0.0
2018-May-05 08:43N 29°14' W 094°41'0 0.0
2018-May-05 08:22N 29°14' W 094°41'0 0.0
2018-May-05 07:46N 29°14' W 094°41'0 0.0
2018-May-05 07:28N 29°14' W 094°41'0 0.0
2018-May-05 06:52N 29°14' W 094°41'0 0.0
2018-May-05 06:22N 29°14' W 094°41'0 0.0
2018-May-05 05:55N 29°14' W 094°41'0 0.0
2018-May-05 05:16N 29°14' W 094°41'0 0.0
2018-May-05 04:01N 29°14' W 094°41'0 0.0
2018-May-05 03:46N 29°14' W 094°41'0 0.0
2018-May-05 03:28N 29°14' W 094°41'0 0.0
2018-May-05 02:55N 29°14' W 094°41'0 0.0
2018-May-05 02:28N 29°14' W 094°41'0 0.0
2018-May-05 01:58N 29°14' W 094°41'0 0.0
2018-May-05 01:28N 29°14' W 094°41'0 0.0
2018-May-05 00:58N 29°14' W 094°41'0 0.0
2018-May-05 00:28N 29°14' W 094°41'0 0.0
2018-May-04 23:58N 29°14' W 094°41'0 0.0
2018-May-04 23:28N 29°14' W 094°41'0 0.0
2018-May-04 22:58N 29°14' W 094°41'0 0.0
2018-May-04 22:22N 29°14' W 094°41'0 0.0
2018-May-04 21:58N 29°14' W 094°41'0 0.0
2018-May-04 21:28N 29°14' W 094°41'0 0.0
2018-May-04 20:58N 29°14' W 094°41'0 0.0
2018-May-04 20:28N 29°14' W 094°41'0 0.0
2018-May-04 19:58N 29°14' W 094°41'0 0.0
2018-May-04 19:28N 29°14' W 094°41'0 0.0
2018-May-04 18:58N 29°14' W 094°41'0 0.0
2018-May-04 18:28N 29°14' W 094°41'0 0.0
2018-May-04 17:58N 29°14' W 094°41'0 0.0
2018-May-04 17:28N 29°14' W 094°41'0 0.0
2018-May-04 16:58N 29°14' W 094°41'0 0.0
2018-May-04 16:28N 29°14' W 094°41'0 0.0
2018-May-04 15:58N 29°14' W 094°41'0 0.0
2018-May-04 15:28N 29°14' W 094°41'0 0.0
2018-May-04 14:58N 29°14' W 094°41'0 0.0
2018-May-04 14:28N 29°14' W 094°41'0 0.0
2018-May-04 13:58N 29°14' W 094°41'0 0.0
2018-May-04 13:28N 29°14' W 094°41'0 0.0
2018-May-04 12:58N 29°14' W 094°41'0 0.0
2018-May-04 12:25N 29°14' W 094°41'0 0.0
2018-May-04 11:58N 29°14' W 094°41'0 0.0
2018-May-04 11:28N 29°14' W 094°41'0 0.0
2018-May-04 10:58N 29°14' W 094°41'0 0.0
2018-May-04 10:28N 29°14' W 094°41'0 0.0
2018-May-04 09:58N 29°14' W 094°41'0 0.0
2018-May-04 09:28N 29°14' W 094°41'0 0.0
2018-May-04 08:58N 29°14' W 094°41'0 0.0
2018-May-04 08:25N 29°14' W 094°41'0 0.0
2018-May-04 07:58N 29°14' W 094°41'0 0.0
2018-May-04 07:28N 29°14' W 094°41'0 0.0
2018-May-04 06:58N 29°14' W 094°41'0 0.0
2018-May-04 06:28N 29°14' W 094°41'0 0.0
2018-May-04 05:58N 29°14' W 094°41'0 0.0
2018-May-04 05:22N 29°14' W 094°41'0 0.0
2018-May-04 04:58N 29°14' W 094°41'0 0.0
2018-May-04 04:28N 29°14' W 094°41'0 0.0
2018-May-04 03:58N 29°14' W 094°41'0 0.0
2018-May-04 03:28N 29°14' W 094°41'0 0.0
2018-May-04 02:58N 29°14' W 094°41'0 0.0
2018-May-04 02:28N 29°14' W 094°41'0 0.0
2018-May-04 01:55N 29°14' W 094°41'0 0.0
2018-May-04 01:28N 29°14' W 094°41'0 0.0
2018-May-04 00:58N 29°14' W 094°41'0 0.0
2018-May-04 00:25N 29°14' W 094°41'0 0.0
2018-May-03 23:58N 29°14' W 094°41'0 0.0
2018-May-03 23:28N 29°14' W 094°41'0 0.0
2018-May-03 22:58N 29°14' W 094°41'0 0.0
2018-May-03 22:28N 29°14' W 094°41'0 0.0
2018-May-03 21:58N 29°14' W 094°41'0 0.0
2018-May-03 21:25N 29°14' W 094°41'0 0.0
2018-May-03 20:58N 29°14' W 094°41'0 0.0
2018-May-03 20:10N 29°14' W 094°41'0 0.0
2018-May-03 19:58N 29°14' W 094°41'0 0.0
2018-May-03 19:25N 29°14' W 094°41'0 0.0
2018-May-03 18:58N 29°14' W 094°41'0 0.0
2018-May-03 18:22N 29°14' W 094°41'0 0.0
2018-May-03 17:55N 29°14' W 094°41'0 0.0
2018-May-03 17:25N 29°14' W 094°41'0 0.0
2018-May-03 16:55N 29°14' W 094°41'0 0.0
2018-May-03 16:25N 29°14' W 094°41'0 0.0
2018-May-03 15:58N 29°14' W 094°41'0 0.0
2018-May-03 15:28N 29°14' W 094°41'0 0.0
2018-May-03 14:58N 29°14' W 094°41'0 0.0
2018-May-03 14:28N 29°14' W 094°41'0 0.0
2018-May-03 13:58N 29°14' W 094°41'0 0.0
2018-May-03 13:28N 29°14' W 094°41'0 0.0
2018-May-03 12:55N 29°14' W 094°41'0 0.0
2018-May-03 12:28N 29°14' W 094°41'0 0.0
2018-May-03 11:49N 29°14' W 094°41'0 0.0
2018-May-03 11:28N 29°14' W 094°41'0 0.0
2018-May-03 10:58N 29°14' W 094°41'0 0.0
2018-May-03 10:28N 29°14' W 094°41'0 0.0
2018-May-03 09:58N 29°14' W 094°41'0 0.0
2018-May-03 09:28N 29°14' W 094°41'0 0.0
2018-May-03 08:58N 29°14' W 094°41'0 0.0
2018-May-03 08:28N 29°14' W 094°41'0 0.0
2018-May-03 07:55N 29°14' W 094°41'0 0.0
2018-May-03 07:25N 29°14' W 094°41'0 0.0
2018-May-03 06:52N 29°14' W 094°41'0 0.0
2018-May-03 06:25N 29°14' W 094°41'0 0.0
2018-May-03 05:52N 29°14' W 094°41'0 0.0
2018-May-03 05:25N 29°14' W 094°41'0 0.0
2018-May-03 04:55N 29°14' W 094°41'0 0.0
2018-May-03 04:28N 29°14' W 094°41'0 0.0
2018-May-03 03:58N 29°14' W 094°41'  

Dump ship's entire track history